Terminal Aerodrome Forecast
Issued by NWS

Home | Current Version | Previous Version | Text Only | Print | Product List | Glossary On
Versions: 1 2 3 4 5 6 7 8 9 10 11 12 13 14 15
000
FTUS46 KPDT 260520
TAFALW
TAF
KALW 260520Z 2606/2706 VRB05KT P6SM FEW080 SCT110
     FM261800 22006KT P6SM SCT070 BKN090
     FM270300 15006KT P6SM FEW080 SCT250=

USA.gov is the U.S. government's official web portal to all federal, state and local government web resources and services.